createdAt,value
2022-11-09T00:01:32.007Z,2.50
2022-11-09T00:04:00.443Z,1.95
2022-11-09T00:06:27.969Z,1.98
2022-11-09T00:08:54.892Z,1.88
2022-11-09T00:11:21.462Z,2.05
2022-11-09T00:13:49.672Z,1.80
2022-11-09T00:16:17.892Z,1.97
2022-11-09T00:18:44.885Z,1.27
2022-11-09T00:21:13.768Z,2.10
2022-11-09T00:23:40.277Z,1.90
2022-11-09T00:26:09.269Z,2.25
2022-11-09T00:28:36.035Z,2.25
2022-11-09T00:31:07.631Z,2.00
2022-11-09T00:33:34.749Z,3.17
2022-11-09T00:36:04.050Z,1.75
2022-11-09T00:38:32.074Z,2.63
2022-11-09T00:41:00.398Z,2.75
2022-11-09T00:43:26.886Z,1.63
2022-11-09T00:45:53.394Z,1.90
2022-11-09T00:48:22.049Z,2.15
2022-11-09T00:50:51.889Z,2.72
2022-11-09T00:53:19.028Z,1.60
2022-11-09T00:55:53.802Z,1.88
2022-11-09T00:58:20.811Z,1.85
2022-11-09T01:00:47.339Z,0.85
2022-11-09T01:03:13.916Z,1.45
2022-11-09T01:05:43.631Z,2.30
2022-11-09T01:08:10.560Z,1.60
2022-11-09T01:10:40.238Z,1.52
2022-11-09T01:13:06.735Z,1.67
2022-11-09T01:15:33.203Z,1.63
2022-11-09T01:17:59.667Z,1.85
2022-11-09T01:20:26.142Z,1.67
2022-11-09T01:22:55.140Z,1.05
2022-11-09T01:25:21.602Z,0.95
2022-11-09T01:27:48.080Z,2.05
2022-11-09T01:30:14.531Z,1.73
2022-11-09T01:32:41.040Z,1.55
2022-11-09T01:35:08.272Z,1.50
2022-11-09T01:37:37.559Z,1.40
2022-11-09T01:40:06.673Z,1.90
2022-11-09T01:45:25.392Z,1.52
2022-11-09T01:47:57.451Z,1.80
2022-11-09T01:50:31.205Z,1.20
2022-11-09T01:52:59.020Z,1.77
2022-11-09T01:55:27.124Z,1.65
2022-11-09T01:57:57.621Z,1.80
2022-11-09T02:00:24.100Z,1.23
2022-11-09T02:02:53.332Z,2.22
2022-11-09T02:05:24.846Z,2.08
2022-11-09T02:07:54.082Z,1.40
2022-11-09T02:10:26.744Z,1.15
2022-11-09T02:12:58.399Z,2.92
2022-11-09T02:15:25.667Z,1.65
2022-11-09T02:17:54.351Z,1.55
2022-11-09T02:20:23.972Z,1.88
2022-11-09T02:22:51.509Z,2.22
2022-11-09T02:25:18.234Z,1.63
2022-11-09T02:27:45.811Z,0.80
2022-11-09T02:30:14.787Z,2.00
2022-11-09T02:32:41.583Z,1.42
2022-11-09T02:35:09.419Z,2.13
2022-11-09T02:37:40.739Z,1.83
2022-11-09T02:40:14.259Z,1.20
2022-11-09T02:42:40.783Z,2.08
2022-11-09T02:45:08.791Z,1.95
2022-11-09T02:47:35.917Z,2.22
2022-11-09T02:50:02.583Z,2.17
2022-11-09T02:52:29.201Z,2.17
2022-11-09T02:54:57.579Z,1.85
2022-11-09T02:57:24.107Z,2.90
2022-11-09T02:59:51.149Z,2.03
2022-11-09T03:02:17.752Z,2.58
2022-11-09T03:04:44.339Z,2.00
2022-11-09T03:07:11.380Z,1.48
2022-11-09T03:09:39.087Z,2.30
2022-11-09T03:12:07.988Z,1.55
2022-11-09T03:14:34.633Z,1.70
2022-11-09T03:17:01.187Z,1.20
2022-11-09T03:19:27.792Z,1.00
2022-11-09T03:21:54.236Z,1.50
2022-11-09T03:26:52.300Z,1.15
2022-11-09T03:29:20.356Z,1.52
2022-11-09T03:31:47.240Z,1.17
2022-11-09T03:34:13.876Z,1.27
2022-11-09T03:36:40.372Z,1.35
2022-11-09T03:39:06.916Z,2.08
2022-11-09T03:41:33.549Z,1.95
2022-11-09T03:44:00.935Z,2.38
2022-11-09T03:46:28.765Z,1.75
2022-11-09T03:48:55.229Z,1.48
2022-11-09T03:51:21.777Z,1.88
2022-11-09T03:53:48.232Z,3.30
2022-11-09T03:56:15.039Z,1.55
2022-11-09T03:58:41.563Z,1.77
2022-11-09T04:01:08.035Z,1.50
2022-11-09T04:03:35.974Z,1.60
2022-11-09T04:06:02.416Z,1.85
2022-11-09T04:08:28.991Z,1.55
2022-11-09T04:10:55.479Z,1.33
2022-11-09T04:13:22.226Z,1.55
2022-11-09T04:15:48.867Z,1.48
2022-11-09T04:18:17.051Z,0.77
2022-11-09T04:20:44.882Z,3.40
2022-11-09T04:23:13.058Z,1.30
2022-11-09T04:25:41.228Z,1.90
2022-11-09T04:30:37.356Z,0.98
2022-11-09T04:33:04.567Z,1.70
2022-11-09T04:35:33.412Z,1.13
2022-11-09T04:38:03.032Z,2.08
2022-11-09T04:40:31.476Z,0.90
2022-11-09T04:42:59.152Z,1.48
2022-11-09T04:45:25.629Z,2.25
2022-11-09T04:47:56.493Z,1.60
2022-11-09T04:50:23.043Z,1.65
2022-11-09T04:52:51.473Z,2.10
2022-11-09T04:55:19.335Z,1.13
2022-11-09T04:57:45.818Z,1.52
2022-11-09T05:00:13.025Z,2.65
2022-11-09T05:02:39.520Z,1.73
2022-11-09T05:05:07.124Z,3.03
2022-11-09T05:07:33.576Z,4.88
2022-11-09T05:10:00.126Z,9.02
2022-11-09T05:12:28.041Z,3.70
2022-11-09T05:14:54.514Z,4.07
2022-11-09T05:17:21.241Z,2.30
2022-11-09T05:19:48.855Z,3.17
2022-11-09T05:22:16.859Z,1.40
2022-11-09T05:24:43.313Z,1.20
2022-11-09T05:27:09.709Z,2.50
2022-11-09T05:29:37.544Z,2.60
2022-11-09T05:32:04.405Z,1.48
2022-11-09T05:34:30.825Z,1.35
2022-11-09T05:37:03.175Z,2.13
2022-11-09T05:39:30.097Z,1.60
2022-11-09T05:41:56.578Z,3.15
2022-11-09T05:44:23.137Z,3.30
2022-11-09T05:46:51.125Z,2.33
2022-11-09T05:49:17.580Z,3.58
2022-11-09T05:51:44.059Z,3.17
2022-11-09T05:54:10.870Z,1.65
2022-11-09T05:56:37.340Z,1.52
2022-11-09T05:59:03.828Z,3.65
2022-11-09T06:01:30.308Z,3.65
2022-11-09T06:03:58.164Z,3.13
2022-11-09T06:06:24.613Z,3.05
2022-11-09T06:08:51.541Z,2.28
2022-11-09T06:11:23.664Z,4.15
2022-11-09T06:13:51.282Z,5.78
2022-11-09T06:16:17.763Z,2.08
2022-11-09T06:18:44.212Z,3.55
2022-11-09T06:21:12.099Z,2.22
2022-11-09T06:23:38.859Z,4.53
2022-11-09T06:26:08.114Z,1.83
2022-11-09T06:28:34.860Z,0.50
2022-11-09T06:31:03.503Z,0.77
2022-11-09T06:33:30.944Z,1.75
2022-11-09T06:35:58.276Z,1.17
2022-11-09T06:38:26.723Z,2.03
2022-11-09T06:40:53.770Z,0.80
2022-11-09T06:43:21.076Z,0.80
2022-11-09T06:45:47.823Z,1.10
2022-11-09T06:48:14.739Z,1.30
2022-11-09T06:50:41.421Z,1.40
2022-11-09T06:53:10.507Z,1.35
2022-11-09T06:58:06.012Z,1.77
2022-11-09T07:00:32.688Z,4.68
2022-11-09T07:02:59.177Z,2.20
2022-11-09T07:05:25.723Z,1.95
2022-11-09T07:07:52.160Z,1.83
2022-11-09T07:10:18.860Z,1.52
2022-11-09T07:12:47.050Z,2.17
2022-11-09T07:15:13.706Z,2.10
2022-11-09T07:17:40.556Z,2.22
2022-11-09T07:20:08.204Z,2.70
2022-11-09T07:22:34.664Z,1.65
2022-11-09T07:25:01.129Z,2.58
2022-11-09T07:27:28.465Z,1.52
2022-11-09T07:29:56.397Z,2.25
2022-11-09T07:32:35.488Z,2.78
2022-11-09T07:35:09.921Z,1.23
2022-11-09T07:37:36.912Z,2.25
2022-11-09T07:40:03.984Z,1.38
2022-11-09T07:42:30.459Z,2.00
2022-11-09T07:44:58.284Z,2.30
2022-11-09T07:47:24.736Z,3.75
2022-11-09T07:49:51.236Z,2.08
2022-11-09T07:52:17.730Z,2.55
2022-11-09T07:54:48.223Z,1.35
2022-11-09T07:57:17.575Z,3.20
2022-11-09T07:59:44.156Z,1.55
2022-11-09T08:02:12.102Z,3.08
2022-11-09T08:04:39.195Z,1.35
2022-11-09T08:07:05.812Z,2.42
2022-11-09T08:09:32.366Z,2.53
2022-11-09T08:11:58.922Z,1.92
2022-11-09T08:14:25.441Z,1.58
2022-11-09T08:16:51.930Z,2.42
2022-11-09T08:19:19.779Z,1.15
2022-11-09T08:21:46.278Z,1.80
2022-11-09T08:24:12.889Z,1.13
2022-11-09T08:26:39.487Z,1.40
2022-11-09T08:29:05.975Z,1.73
2022-11-09T08:31:32.435Z,1.30
2022-11-09T08:33:58.915Z,1.70
2022-11-09T08:36:26.764Z,2.13
2022-11-09T08:38:53.294Z,1.58
2022-11-09T08:41:19.819Z,1.27
2022-11-09T08:43:46.258Z,1.88
2022-11-09T08:46:12.747Z,1.70
2022-11-09T08:48:39.256Z,0.98
2022-11-09T08:51:06.146Z,1.38
2022-11-09T08:53:34.011Z,2.17
2022-11-09T08:56:00.459Z,1.00
2022-11-09T08:58:27.009Z,1.20
2022-11-09T09:00:53.492Z,2.47
2022-11-09T09:03:20.068Z,2.28
2022-11-09T09:05:46.550Z,1.00
2022-11-09T09:08:13.521Z,2.25
2022-11-09T09:10:41.451Z,1.48
2022-11-09T09:13:08.015Z,1.15
2022-11-09T09:15:34.488Z,1.60
2022-11-09T09:18:01.303Z,1.50
2022-11-09T09:20:28.014Z,1.25
2022-11-09T09:22:54.527Z,2.90
2022-11-09T09:25:21.011Z,1.40
2022-11-09T09:27:48.770Z,1.85
2022-11-09T09:30:15.311Z,2.45
2022-11-09T09:32:41.787Z,1.45
2022-11-09T09:35:09.370Z,2.08
2022-11-09T09:37:35.946Z,1.60
2022-11-09T09:40:02.471Z,1.50
2022-11-09T09:42:33.345Z,3.08
2022-11-09T09:45:04.408Z,2.22
2022-11-09T09:47:44.461Z,0.90
2022-11-09T09:50:15.814Z,1.60
2022-11-09T09:53:04.594Z,1.20
2022-11-09T09:55:37.209Z,2.05
2022-11-09T09:58:09.984Z,1.02
2022-11-09T10:00:39.209Z,1.35
2022-11-09T10:03:06.357Z,0.73
2022-11-09T10:05:51.306Z,1.20
2022-11-09T10:08:41.651Z,0.95
2022-11-09T10:11:16.895Z,1.23
2022-11-09T10:14:09.562Z,0.98
2022-11-09T10:16:47.683Z,1.02
2022-11-09T10:19:28.565Z,1.93
2022-11-09T10:22:02.042Z,1.98
2022-11-09T10:24:48.533Z,1.02
2022-11-09T10:27:27.679Z,1.05
2022-11-09T10:29:54.854Z,1.13
2022-11-09T10:32:24.094Z,1.05
2022-11-09T10:34:54.760Z,1.75
2022-11-09T10:37:27.418Z,0.70
2022-11-09T10:40:00.522Z,1.75
2022-11-09T10:42:49.056Z,2.10
2022-11-09T10:45:36.031Z,0.98
2022-11-09T10:48:31.663Z,2.13
2022-11-09T10:51:35.166Z,0.95
2022-11-09T10:54:21.943Z,1.30
2022-11-09T10:57:14.798Z,1.15
2022-11-09T11:00:00.395Z,1.20
2022-11-09T11:02:47.233Z,2.03
2022-11-09T11:05:34.229Z,1.33
2022-11-09T11:08:28.954Z,1.05
2022-11-09T11:11:38.860Z,0.80
2022-11-09T11:14:31.424Z,1.20
2022-11-09T11:17:25.312Z,1.75
2022-11-09T11:20:28.445Z,1.50
2022-11-09T11:23:17.618Z,1.80
2022-11-09T11:26:16.161Z,0.93
2022-11-09T11:29:08.852Z,3.08
2022-11-09T11:31:54.230Z,0.82
2022-11-09T11:34:58.981Z,1.50
2022-11-09T11:37:53.810Z,1.75
2022-11-09T11:40:47.397Z,1.23
2022-11-09T11:43:43.818Z,1.17
2022-11-09T11:46:40.740Z,1.10
2022-11-09T11:50:05.894Z,1.40
2022-11-09T11:53:03.770Z,2.58
2022-11-09T11:56:05.667Z,4.23
2022-11-09T11:59:11.248Z,2.08
2022-11-09T12:02:20.192Z,1.35
2022-11-09T12:05:30.054Z,2.33
2022-11-09T12:08:22.776Z,1.00
2022-11-09T12:11:19.371Z,1.05
2022-11-09T12:14:13.130Z,1.40
2022-11-09T12:17:04.294Z,1.27
2022-11-09T12:20:14.566Z,1.35
2022-11-09T12:23:13.023Z,2.08
2022-11-09T12:26:15.513Z,0.68
2022-11-09T12:29:13.130Z,1.80
2022-11-09T12:32:22.782Z,1.05
2022-11-09T12:35:30.340Z,1.15
2022-11-09T12:38:19.901Z,1.13
2022-11-09T12:41:09.934Z,1.60
2022-11-09T12:44:00.717Z,0.70
2022-11-09T12:46:51.778Z,1.02
2022-11-09T12:49:39.239Z,0.90
2022-11-09T12:52:28.045Z,1.15
2022-11-09T12:55:14.560Z,1.45
2022-11-09T12:58:01.163Z,1.58
2022-11-09T13:00:52.854Z,1.13
2022-11-09T13:03:52.166Z,1.20
2022-11-09T13:06:37.420Z,1.45
2022-11-09T13:09:24.813Z,1.15
2022-11-09T13:12:19.045Z,2.05
2022-11-09T13:15:23.171Z,2.40
2022-11-09T13:18:24.291Z,2.63
2022-11-09T13:21:39.910Z,1.10
2022-11-09T13:24:52.985Z,3.28
2022-11-09T13:27:44.285Z,1.60
2022-11-09T13:30:50.383Z,1.70
2022-11-09T13:33:35.753Z,2.80
2022-11-09T13:36:21.032Z,1.77
2022-11-09T13:39:30.985Z,1.85
2022-11-09T13:42:35.753Z,1.63
2022-11-09T13:45:29.868Z,1.92
2022-11-09T13:48:41.487Z,2.85
2022-11-09T13:51:43.097Z,2.65
2022-11-09T13:54:31.054Z,1.73
2022-11-09T13:57:16.295Z,2.03
2022-11-09T14:00:03.121Z,2.58
2022-11-09T14:02:56.858Z,1.75
2022-11-09T14:05:44.061Z,1.48
2022-11-09T14:08:37.472Z,2.70
2022-11-09T14:11:42.287Z,1.73
2022-11-09T14:14:59.925Z,2.78
2022-11-09T14:17:57.394Z,0.90
2022-11-09T14:20:53.581Z,2.00
2022-11-09T14:23:38.750Z,2.70
2022-11-09T14:26:25.218Z,2.00
2022-11-09T14:29:20.574Z,1.85
2022-11-09T14:32:23.301Z,3.90
2022-11-09T14:35:19.944Z,5.03
2022-11-09T14:38:16.019Z,2.67
2022-11-09T14:41:02.173Z,3.13
2022-11-09T14:43:49.282Z,3.55
2022-11-09T14:46:35.630Z,3.58
2022-11-09T14:49:22.025Z,1.20
2022-11-09T14:52:12.618Z,1.27
2022-11-09T14:54:58.559Z,3.30
2022-11-09T14:57:47.166Z,1.40
2022-11-09T15:00:34.801Z,1.52
2022-11-09T15:03:27.662Z,1.98
2022-11-09T15:06:15.787Z,1.75
2022-11-09T15:09:04.600Z,1.58
2022-11-09T15:14:36.149Z,6.20
2022-11-09T15:17:25.581Z,5.82
2022-11-09T15:20:27.203Z,6.68
2022-11-09T15:23:22.878Z,5.75
2022-11-09T15:26:24.893Z,5.68
2022-11-09T15:29:43.585Z,3.83
2022-11-09T15:32:33.582Z,3.25
2022-11-09T15:35:19.586Z,3.30
2022-11-09T15:38:06.317Z,5.45
2022-11-09T15:40:51.558Z,8.80
2022-11-09T15:43:37.177Z,3.28
2022-11-09T15:46:24.594Z,7.72
2022-11-09T15:49:16.724Z,5.22
2022-11-09T15:52:02.909Z,5.57
2022-11-09T15:54:49.377Z,7.95
2022-11-09T15:57:34.545Z,3.50
2022-11-09T16:00:22.164Z,4.20
2022-11-09T16:03:07.605Z,3.47
2022-11-09T16:05:52.546Z,6.53
2022-11-09T16:08:37.690Z,2.80
2022-11-09T16:11:24.390Z,7.30
2022-11-09T16:14:09.610Z,6.30
2022-11-09T16:16:54.494Z,6.85
2022-11-09T16:19:39.521Z,5.57
2022-11-09T16:22:29.497Z,5.15
2022-11-09T16:25:18.087Z,4.90
2022-11-09T16:28:04.928Z,6.35
2022-11-09T16:30:49.959Z,4.90
2022-11-09T16:33:36.105Z,6.50
2022-11-09T16:36:24.177Z,5.53
2022-11-09T16:39:11.398Z,5.05
2022-11-09T16:41:56.443Z,4.35
2022-11-09T16:44:45.161Z,7.05
2022-11-09T16:47:30.773Z,5.72
2022-11-09T16:50:16.134Z,3.45
2022-11-09T16:53:01.131Z,2.42
2022-11-09T16:55:46.358Z,4.50
2022-11-09T16:58:31.783Z,3.85
2022-11-09T17:01:22.236Z,4.45
2022-11-09T17:04:08.833Z,3.53
2022-11-09T17:06:54.024Z,6.55
2022-11-09T17:09:39.346Z,5.95
2022-11-09T17:12:24.628Z,7.57
2022-11-09T17:15:10.754Z,9.95
2022-11-09T17:17:57.043Z,5.95
2022-11-09T17:20:43.143Z,12.35
2022-11-09T17:23:28.130Z,19.35
2022-11-09T17:26:13.530Z,3.85
2022-11-09T17:28:58.515Z,4.72
2022-11-09T17:31:43.466Z,3.13
2022-11-09T17:34:30.150Z,4.10
2022-11-09T17:37:15.383Z,12.82
2022-11-09T17:40:02.562Z,6.30
2022-11-09T17:42:47.912Z,6.57
2022-11-09T17:45:35.047Z,22.58
2022-11-09T17:48:20.041Z,6.60
2022-11-09T17:51:07.337Z,7.32
2022-11-09T17:53:52.818Z,5.15
2022-11-09T17:56:37.933Z,3.97
2022-11-09T17:59:23.203Z,5.32
2022-11-09T18:02:09.646Z,5.13
2022-11-09T18:04:54.710Z,4.57
2022-11-09T18:07:41.171Z,4.68
2022-11-09T18:10:26.422Z,4.85
2022-11-09T18:13:11.498Z,6.28
2022-11-09T18:15:56.823Z,5.07
2022-11-09T18:18:42.810Z,6.22
2022-11-09T18:21:31.934Z,6.07
2022-11-09T18:24:18.698Z,7.35
2022-11-09T18:27:03.759Z,6.35
2022-11-09T18:29:48.998Z,9.15
2022-11-09T18:32:34.062Z,7.65
2022-11-09T18:35:19.077Z,11.18
2022-11-09T18:38:04.195Z,11.57
2022-11-09T18:40:58.655Z,11.13
2022-11-09T18:43:43.938Z,8.32
2022-11-09T18:46:34.019Z,15.40
2022-11-09T18:49:19.086Z,5.47
2022-11-09T18:52:04.817Z,8.73
2022-11-09T18:54:49.665Z,5.57
2022-11-09T18:57:35.921Z,3.55
2022-11-09T19:00:21.384Z,3.78
2022-11-09T19:03:06.772Z,7.53
2022-11-09T19:05:52.124Z,7.05
2022-11-09T19:08:37.589Z,6.15
2022-11-09T19:11:22.960Z,4.45
2022-11-09T19:14:10.498Z,3.58
2022-11-09T19:16:56.090Z,3.28
2022-11-09T19:19:42.001Z,3.47
2022-11-09T19:22:27.840Z,3.53
2022-11-09T19:25:13.007Z,1.90
2022-11-09T19:27:57.913Z,3.10
2022-11-09T19:30:44.533Z,2.75
2022-11-09T19:33:29.963Z,2.97
2022-11-09T19:36:29.585Z,5.22
2022-11-09T19:39:16.301Z,4.03
2022-11-09T19:42:01.637Z,8.00
2022-11-09T19:44:48.912Z,5.80
2022-11-09T19:47:38.591Z,2.95
2022-11-09T19:50:23.651Z,10.05
2022-11-09T19:53:08.634Z,8.15
2022-11-09T19:55:58.070Z,4.63
2022-11-09T19:58:43.754Z,4.18
2022-11-09T20:01:29.201Z,3.65
2022-11-09T20:04:15.443Z,4.32
2022-11-09T20:07:00.640Z,5.43
2022-11-09T20:09:45.801Z,5.25
2022-11-09T20:12:30.955Z,6.25
2022-11-09T20:15:16.260Z,6.88
2022-11-09T20:18:01.335Z,11.23
2022-11-09T20:20:47.978Z,6.93
2022-11-09T20:23:33.342Z,5.53
2022-11-09T20:26:18.569Z,3.72
2022-11-09T20:29:03.878Z,4.25
2022-11-09T20:31:48.911Z,3.72
2022-11-09T20:34:34.414Z,3.35
2022-11-09T20:37:20.791Z,3.55
2022-11-09T20:40:06.460Z,3.47
2022-11-09T20:42:51.608Z,2.67
2022-11-09T20:45:36.744Z,2.72
2022-11-09T20:48:51.627Z,2.53
2022-11-09T20:51:27.290Z,3.30
2022-11-09T20:54:13.460Z,3.92
2022-11-09T20:56:58.843Z,3.33
2022-11-09T20:59:43.992Z,4.00
2022-11-09T21:02:28.959Z,3.55
2022-11-09T21:05:14.479Z,2.25
2022-11-09T21:08:00.059Z,3.80
2022-11-09T21:10:46.668Z,2.00
2022-11-09T21:13:32.481Z,4.57
2022-11-09T21:16:19.112Z,2.78
2022-11-09T21:19:04.196Z,1.90
2022-11-09T21:21:49.050Z,1.83
2022-11-09T21:24:34.064Z,4.28
2022-11-09T21:27:20.633Z,5.38
2022-11-09T21:30:06.590Z,5.20
2022-11-09T21:32:51.565Z,3.05
2022-11-09T21:35:36.624Z,1.80
2022-11-09T21:38:22.196Z,2.92
2022-11-09T21:41:08.801Z,2.53
2022-11-09T21:43:55.892Z,3.25
2022-11-09T21:46:42.369Z,3.17
2022-11-09T21:49:28.329Z,3.08
2022-11-09T21:52:13.096Z,2.67
2022-11-09T21:54:58.009Z,4.20
2022-11-09T21:57:42.993Z,4.15
2022-11-09T22:00:29.901Z,5.38
2022-11-09T22:03:14.991Z,2.28
2022-11-09T22:06:00.352Z,4.72
2022-11-09T22:08:45.608Z,3.13
2022-11-09T22:11:30.956Z,1.48
2022-11-09T22:14:18.474Z,2.38
2022-11-09T22:17:06.457Z,2.45
2022-11-09T22:19:51.669Z,2.25
2022-11-09T22:22:36.692Z,4.43
2022-11-09T22:25:21.498Z,3.55
2022-11-09T22:28:06.582Z,3.42
2022-11-09T22:30:51.686Z,3.67
2022-11-09T22:33:38.297Z,3.20
2022-11-09T22:36:23.419Z,2.90
2022-11-09T22:39:08.681Z,2.47
2022-11-09T22:41:53.949Z,2.30
2022-11-09T22:44:39.003Z,3.10
2022-11-09T22:47:23.958Z,3.10
2022-11-09T22:50:10.508Z,2.22
2022-11-09T22:52:57.384Z,5.13
2022-11-09T22:55:52.052Z,2.30
2022-11-09T22:58:37.128Z,3.10
2022-11-09T23:01:22.520Z,2.63
2022-11-09T23:04:08.717Z,3.75
2022-11-09T23:06:55.351Z,4.35
2022-11-09T23:09:40.488Z,3.67
2022-11-09T23:12:25.805Z,3.20
2022-11-09T23:15:10.845Z,3.88
2022-11-09T23:17:57.768Z,3.88
2022-11-09T23:20:43.542Z,2.85
2022-11-09T23:23:29.912Z,4.20
2022-11-09T23:26:15.185Z,4.32
2022-11-09T23:29:00.243Z,3.25
2022-11-09T23:31:45.481Z,4.28
2022-11-09T23:34:30.401Z,2.20
2022-11-09T23:37:15.246Z,3.50
2022-11-09T23:40:01.717Z,2.13
2022-11-09T23:42:46.358Z,2.13
2022-11-09T23:45:33.320Z,2.53
2022-11-09T23:48:19.245Z,3.65
2022-11-09T23:51:05.362Z,1.52
2022-11-09T23:53:50.654Z,2.05
2022-11-09T23:56:37.066Z,2.92
2022-11-09T23:59:22.297Z,2.55
